createdAt,value
2018-12-16T00:00:18.469Z,10.10
2018-12-16T00:02:55.910Z,10.00
2018-12-16T00:05:33.379Z,9.78
2018-12-16T00:08:08.678Z,9.83
2018-12-16T00:10:44.157Z,9.73
2018-12-16T00:13:19.862Z,11.08
2018-12-16T00:15:55.329Z,9.70
2018-12-16T00:18:30.581Z,8.38
2018-12-16T00:21:06.959Z,10.30
2018-12-16T00:23:42.406Z,9.90
2018-12-16T00:26:17.818Z,9.85
2018-12-16T00:28:53.184Z,8.78
2018-12-16T00:31:28.653Z,9.50
2018-12-16T00:34:04.040Z,8.53
2018-12-16T00:36:39.350Z,8.00
2018-12-16T00:39:14.900Z,9.23
2018-12-16T00:41:50.426Z,8.43
2018-12-16T00:44:25.960Z,10.10
2018-12-16T00:47:01.434Z,9.88
2018-12-16T00:49:36.789Z,9.78
2018-12-16T00:52:12.159Z,8.95
2018-12-16T00:54:47.549Z,7.92
2018-12-16T00:57:22.946Z,8.75
2018-12-16T00:59:58.393Z,10.35
2018-12-16T01:02:38.993Z,8.20
2018-12-16T01:05:14.666Z,8.78
2018-12-16T01:07:50.141Z,8.03
2018-12-16T01:10:25.526Z,8.50
2018-12-16T01:13:00.893Z,8.85
2018-12-16T01:15:36.342Z,10.58
2018-12-16T01:18:11.706Z,7.97
2018-12-16T01:20:47.354Z,9.13
2018-12-16T01:23:22.688Z,10.80
2018-12-16T01:25:58.114Z,9.60
2018-12-16T01:28:33.517Z,10.48
2018-12-16T01:31:08.927Z,10.18
2018-12-16T01:33:44.306Z,10.23
2018-12-16T01:36:19.784Z,11.63
2018-12-16T01:38:55.242Z,10.40
2018-12-16T01:41:31.038Z,10.40
2018-12-16T01:44:06.447Z,12.58
2018-12-16T01:46:41.719Z,11.48
2018-12-16T01:49:17.122Z,11.93
2018-12-16T01:51:52.553Z,12.70
2018-12-16T01:54:28.092Z,12.95
2018-12-16T01:57:03.998Z,14.55
2018-12-16T01:59:39.210Z,15.55
2018-12-16T02:02:14.574Z,14.85
2018-12-16T02:04:50.011Z,16.12
2018-12-16T02:07:25.467Z,12.60
2018-12-16T02:10:00.884Z,13.93
2018-12-16T02:12:36.339Z,13.45
2018-12-16T02:15:11.858Z,13.40
2018-12-16T02:17:47.291Z,14.63
2018-12-16T02:20:22.665Z,13.75
2018-12-16T02:22:58.074Z,14.05
2018-12-16T02:25:33.578Z,14.58
2018-12-16T02:28:08.978Z,15.65
2018-12-16T02:30:44.931Z,14.38
2018-12-16T02:33:20.399Z,14.20
2018-12-16T02:35:55.751Z,15.53
2018-12-16T02:38:31.199Z,15.13
2018-12-16T02:41:06.755Z,16.85
2018-12-16T02:43:42.090Z,17.35
2018-12-16T02:46:17.749Z,15.00
2018-12-16T02:48:52.999Z,17.27
2018-12-16T02:51:28.347Z,14.58
2018-12-16T02:54:03.771Z,14.45
2018-12-16T02:56:39.107Z,15.83
2018-12-16T02:59:14.489Z,15.98
2018-12-16T03:01:50.071Z,13.00
2018-12-16T03:04:25.439Z,15.20
2018-12-16T03:07:00.820Z,15.15
2018-12-16T03:09:36.897Z,15.00
2018-12-16T03:12:12.170Z,16.05
2018-12-16T03:14:47.748Z,15.25
2018-12-16T03:17:23.717Z,16.70
2018-12-16T03:19:59.325Z,16.12
2018-12-16T03:22:34.809Z,15.40
2018-12-16T03:25:10.195Z,17.57
2018-12-16T03:27:45.546Z,16.80
2018-12-16T03:30:23.271Z,17.32
2018-12-16T03:32:58.543Z,15.30
2018-12-16T03:35:34.338Z,16.80
2018-12-16T03:38:09.705Z,17.60
2018-12-16T03:40:45.130Z,15.93
2018-12-16T03:43:20.536Z,16.62
2018-12-16T03:45:55.882Z,14.93
2018-12-16T03:48:31.973Z,16.95
2018-12-16T03:51:07.359Z,16.12
2018-12-16T03:53:42.835Z,17.50
2018-12-16T03:56:18.251Z,16.23
2018-12-16T03:59:04.758Z,17.10
2018-12-16T04:01:41.209Z,15.60
2018-12-16T04:04:16.581Z,16.80
2018-12-16T04:06:51.847Z,14.50
2018-12-16T04:09:27.160Z,17.92
2018-12-16T04:12:02.454Z,17.32
2018-12-16T04:14:37.683Z,16.50
2018-12-16T04:17:12.994Z,17.95
2018-12-16T04:19:48.395Z,17.90
2018-12-16T04:22:23.962Z,16.62
2018-12-16T04:24:59.409Z,16.07
2018-12-16T04:27:34.793Z,16.67
2018-12-16T04:30:10.191Z,15.88
2018-12-16T04:32:45.692Z,17.30
2018-12-16T04:35:21.026Z,17.25
2018-12-16T04:37:56.388Z,18.67
2018-12-16T04:40:31.775Z,15.90
2018-12-16T04:43:07.079Z,16.07
2018-12-16T04:45:42.319Z,17.32
2018-12-16T04:48:17.727Z,18.75
2018-12-16T04:50:53.052Z,18.45
2018-12-16T04:53:35.128Z,16.80
2018-12-16T04:56:05.937Z,18.25
2018-12-16T04:58:41.383Z,20.45
2018-12-16T05:01:16.648Z,18.45
2018-12-16T05:03:52.191Z,15.75
2018-12-16T05:06:27.553Z,18.40
2018-12-16T05:09:03.832Z,17.30
2018-12-16T05:11:41.238Z,16.73
2018-12-16T05:14:17.173Z,18.02
2018-12-16T05:16:52.727Z,17.32
2018-12-16T05:19:28.196Z,15.68
2018-12-16T05:22:03.894Z,14.98
2018-12-16T05:24:39.422Z,18.85
2018-12-16T05:27:14.706Z,18.57
2018-12-16T05:29:50.138Z,16.77
2018-12-16T05:32:25.445Z,16.87
2018-12-16T05:35:00.919Z,16.05
2018-12-16T05:37:36.423Z,18.12
2018-12-16T05:40:11.829Z,16.05
2018-12-16T05:42:48.375Z,16.37
2018-12-16T05:45:23.986Z,15.53
2018-12-16T05:47:59.354Z,16.50
2018-12-16T05:50:34.634Z,16.45
2018-12-16T05:53:10.057Z,16.85
2018-12-16T05:55:45.383Z,16.87
2018-12-16T05:58:20.791Z,17.55
2018-12-16T06:00:56.298Z,16.70
2018-12-16T06:03:31.695Z,15.93
2018-12-16T06:06:07.059Z,16.80
2018-12-16T06:08:42.434Z,18.35
2018-12-16T06:11:18.119Z,16.60
2018-12-16T06:13:54.446Z,18.10
2018-12-16T06:16:29.839Z,18.95
2018-12-16T06:19:05.231Z,18.37
2018-12-16T06:21:41.179Z,19.40
2018-12-16T06:24:17.399Z,17.30
2018-12-16T06:26:53.295Z,18.87
2018-12-16T06:29:28.812Z,17.23
2018-12-16T06:32:04.387Z,18.67
2018-12-16T06:34:39.766Z,17.67
2018-12-16T06:37:15.055Z,15.80
2018-12-16T06:39:50.510Z,18.70
2018-12-16T06:42:26.019Z,19.15
2018-12-16T06:45:01.415Z,17.52
2018-12-16T06:47:37.612Z,18.02
2018-12-16T06:50:13.870Z,17.75
2018-12-16T06:52:50.145Z,17.40
2018-12-16T06:55:25.559Z,18.05
2018-12-16T06:58:00.894Z,18.75
2018-12-16T07:00:37.175Z,16.70
2018-12-16T07:03:13.367Z,19.12
2018-12-16T07:05:49.675Z,18.27
2018-12-16T07:08:25.629Z,18.42
2018-12-16T07:11:00.955Z,15.95
2018-12-16T07:13:36.250Z,16.52
2018-12-16T07:16:11.614Z,17.10
2018-12-16T07:18:47.008Z,18.52
2018-12-16T07:21:22.478Z,18.23
2018-12-16T07:23:57.790Z,19.05
2018-12-16T07:26:33.282Z,19.27
2018-12-16T07:29:08.620Z,18.50
2018-12-16T07:31:44.051Z,16.80
2018-12-16T07:34:19.415Z,18.77
2018-12-16T07:36:54.862Z,18.70
2018-12-16T07:39:30.313Z,17.55
2018-12-16T07:42:05.687Z,18.48
2018-12-16T07:44:41.072Z,18.87
2018-12-16T07:47:16.437Z,16.30
2018-12-16T07:49:51.986Z,16.20
2018-12-16T07:52:27.560Z,14.80
2018-12-16T07:55:03.143Z,16.25
2018-12-16T07:57:39.613Z,19.02
2018-12-16T08:00:15.080Z,17.80
2018-12-16T08:02:50.347Z,18.00
2018-12-16T08:05:25.984Z,14.78
2018-12-16T08:08:01.471Z,16.52
2018-12-16T08:10:36.975Z,16.97
2018-12-16T08:13:12.350Z,17.52
2018-12-16T08:15:47.751Z,16.73
2018-12-16T08:18:23.119Z,15.70
2018-12-16T08:20:58.422Z,16.97
2018-12-16T08:23:35.480Z,15.90
2018-12-16T08:26:11.258Z,17.50
2018-12-16T08:28:46.587Z,21.15
2018-12-16T08:31:22.097Z,16.45
2018-12-16T08:33:57.377Z,17.48
2018-12-16T08:36:32.667Z,17.73
2018-12-16T08:39:08.071Z,15.08
2018-12-16T08:41:45.467Z,16.40
2018-12-16T08:44:20.689Z,17.98
2018-12-16T08:46:56.076Z,15.98
2018-12-16T08:49:31.386Z,17.77
2018-12-16T08:52:06.782Z,18.42
2018-12-16T08:54:42.310Z,17.15
2018-12-16T08:57:17.734Z,19.40
2018-12-16T08:59:53.128Z,17.55
2018-12-16T09:02:28.618Z,18.52
2018-12-16T09:05:04.263Z,17.98
2018-12-16T09:07:40.894Z,19.50
2018-12-16T09:10:16.319Z,20.30
2018-12-16T09:12:51.621Z,18.73
2018-12-16T09:15:26.896Z,18.85
2018-12-16T09:18:02.304Z,19.52
2018-12-16T09:20:37.590Z,19.57
2018-12-16T09:23:13.206Z,18.95
2018-12-16T09:25:48.705Z,19.42
2018-12-16T09:28:24.094Z,18.85
2018-12-16T09:30:59.539Z,19.00
2018-12-16T09:33:35.153Z,18.80
2018-12-16T09:36:10.605Z,17.75
2018-12-16T09:38:45.962Z,19.23
2018-12-16T09:41:21.207Z,18.25
2018-12-16T09:43:56.468Z,20.20
2018-12-16T09:46:31.859Z,20.25
2018-12-16T09:49:07.286Z,18.35
2018-12-16T09:51:42.704Z,19.25
2018-12-16T09:54:18.122Z,19.77
2018-12-16T09:56:53.583Z,18.40
2018-12-16T09:59:29.020Z,17.77
2018-12-16T10:02:04.530Z,20.30
2018-12-16T10:04:40.007Z,18.70
2018-12-16T10:07:15.476Z,15.80
2018-12-16T10:09:50.837Z,16.77
2018-12-16T10:12:26.412Z,15.08
2018-12-16T10:15:01.824Z,15.70
2018-12-16T10:17:37.191Z,16.35
2018-12-16T10:20:13.003Z,13.55
2018-12-16T10:22:48.378Z,13.75
2018-12-16T10:25:23.761Z,14.23
2018-12-16T10:27:59.141Z,13.25
2018-12-16T10:30:34.619Z,14.05
2018-12-16T10:33:09.858Z,12.50
2018-12-16T10:35:45.225Z,13.08
2018-12-16T10:38:20.696Z,12.25
2018-12-16T10:40:56.238Z,11.48
2018-12-16T10:43:31.697Z,12.05
2018-12-16T10:46:07.148Z,13.13
2018-12-16T10:48:42.707Z,10.63
2018-12-16T10:51:18.190Z,11.90
2018-12-16T10:53:53.649Z,14.07
2018-12-16T10:56:28.937Z,13.50
2018-12-16T10:59:04.395Z,12.93
2018-12-16T11:01:39.636Z,14.55
2018-12-16T11:04:14.935Z,11.60
2018-12-16T11:06:50.226Z,13.75
2018-12-16T11:09:25.570Z,12.30
2018-12-16T11:12:01.021Z,12.25
2018-12-16T11:14:36.432Z,12.73
2018-12-16T11:17:11.782Z,15.65
2018-12-16T11:19:47.083Z,13.40
2018-12-16T11:22:22.862Z,12.85
2018-12-16T11:25:05.401Z,14.98
2018-12-16T11:27:35.830Z,12.63
2018-12-16T11:30:12.403Z,14.80
2018-12-16T11:32:48.474Z,14.58
2018-12-16T11:35:23.745Z,13.62
2018-12-16T11:37:59.791Z,13.85
2018-12-16T11:40:35.307Z,13.13
2018-12-16T11:43:10.738Z,13.62
2018-12-16T11:45:46.692Z,12.53
2018-12-16T11:48:22.055Z,11.25
2018-12-16T11:50:57.478Z,12.63
2018-12-16T11:53:33.291Z,12.33
2018-12-16T11:56:08.751Z,14.13
2018-12-16T11:58:44.202Z,13.72
2018-12-16T12:01:19.458Z,11.70
2018-12-16T12:03:54.875Z,13.10
2018-12-16T12:06:30.140Z,13.62
2018-12-16T12:09:06.118Z,13.00
2018-12-16T12:11:43.468Z,12.98
2018-12-16T12:14:18.990Z,14.10
2018-12-16T12:16:54.661Z,14.93
2018-12-16T12:19:38.915Z,14.47
2018-12-16T12:22:14.169Z,14.47
2018-12-16T12:24:49.650Z,13.05
2018-12-16T12:27:24.943Z,13.98
2018-12-16T12:30:00.238Z,12.28
2018-12-16T12:32:35.622Z,13.75
2018-12-16T12:35:10.961Z,13.05
2018-12-16T12:37:46.295Z,13.15
2018-12-16T12:40:21.793Z,12.80
2018-12-16T12:42:57.229Z,13.25
2018-12-16T12:45:32.563Z,13.83
2018-12-16T12:48:07.892Z,15.13
2018-12-16T12:50:43.423Z,14.33
2018-12-16T12:53:18.707Z,13.55
2018-12-16T12:55:54.133Z,14.15
2018-12-16T12:58:29.544Z,16.00
2018-12-16T13:01:05.222Z,13.70
2018-12-16T13:03:40.939Z,13.85
2018-12-16T13:06:16.771Z,14.58
2018-12-16T13:08:52.135Z,15.32
2018-12-16T13:11:27.427Z,13.78
2018-12-16T13:14:02.702Z,14.80
2018-12-16T13:16:38.170Z,15.53
2018-12-16T13:19:13.602Z,14.20
2018-12-16T13:21:49.091Z,15.25
2018-12-16T13:24:24.760Z,15.43
2018-12-16T13:27:00.190Z,13.83
2018-12-16T13:29:35.651Z,14.87
2018-12-16T13:32:10.918Z,16.75
2018-12-16T13:34:46.372Z,13.50
2018-12-16T13:37:21.722Z,15.85
2018-12-16T13:39:57.057Z,16.20
2018-12-16T13:42:32.894Z,15.95
2018-12-16T13:45:08.696Z,15.23
2018-12-16T13:47:44.228Z,15.85
2018-12-16T13:50:19.753Z,15.80
2018-12-16T13:52:55.174Z,14.95
2018-12-16T13:55:30.576Z,16.25
2018-12-16T13:58:05.942Z,17.00
2018-12-16T14:00:41.614Z,14.75
2018-12-16T14:03:17.067Z,16.07
2018-12-16T14:05:52.471Z,14.70
2018-12-16T14:08:27.835Z,16.93
2018-12-16T14:11:03.339Z,15.48
2018-12-16T14:13:38.645Z,13.80
2018-12-16T14:16:14.078Z,15.98
2018-12-16T14:18:49.560Z,16.10
2018-12-16T14:21:25.029Z,15.48
2018-12-16T14:24:00.516Z,17.95
2018-12-16T14:26:36.103Z,15.70
2018-12-16T14:29:11.432Z,16.02
2018-12-16T14:31:47.067Z,16.42
2018-12-16T14:34:23.354Z,15.30
2018-12-16T14:37:00.019Z,15.98
2018-12-16T14:39:36.215Z,16.25
2018-12-16T14:42:12.409Z,14.53
2018-12-16T14:44:48.026Z,16.75
2018-12-16T14:47:23.346Z,15.40
2018-12-16T14:49:58.715Z,14.65
2018-12-16T14:52:34.085Z,17.52
2018-12-16T14:55:09.607Z,18.15
2018-12-16T14:57:44.843Z,14.60
2018-12-16T15:00:20.375Z,16.25
2018-12-16T15:02:56.855Z,16.42
2018-12-16T15:05:33.367Z,16.02
2018-12-16T15:08:09.484Z,16.67
2018-12-16T15:10:45.682Z,14.93
2018-12-16T15:13:21.552Z,14.23
2018-12-16T15:15:56.907Z,16.07
2018-12-16T15:18:32.311Z,15.95
2018-12-16T15:21:07.688Z,19.57
2018-12-16T15:23:43.084Z,15.98
2018-12-16T15:26:18.423Z,17.52
2018-12-16T15:28:54.567Z,15.55
2018-12-16T15:31:31.814Z,15.45
2018-12-16T15:34:08.384Z,16.62
2018-12-16T15:36:43.936Z,18.37
2018-12-16T15:39:19.295Z,16.42
2018-12-16T15:41:54.635Z,15.90
2018-12-16T15:44:30.003Z,15.85
2018-12-16T15:47:05.358Z,16.37
2018-12-16T15:49:40.850Z,16.97
2018-12-16T15:52:16.291Z,17.35
2018-12-16T15:54:51.974Z,15.03
2018-12-16T15:57:28.410Z,16.52
2018-12-16T16:00:05.782Z,16.30
2018-12-16T16:02:42.221Z,15.63
2018-12-16T16:05:17.770Z,15.50
2018-12-16T16:07:53.422Z,14.87
2018-12-16T16:10:28.772Z,15.43
2018-12-16T16:13:04.084Z,18.50
2018-12-16T16:15:39.689Z,16.77
2018-12-16T16:18:15.034Z,18.15
2018-12-16T16:20:50.462Z,15.90
2018-12-16T16:23:25.923Z,16.90
2018-12-16T16:26:01.301Z,16.87
2018-12-16T16:28:36.924Z,19.10
2018-12-16T16:31:12.403Z,19.00
2018-12-16T16:33:47.851Z,16.45
2018-12-16T16:36:23.167Z,20.72
2018-12-16T16:38:58.615Z,16.80
2018-12-16T16:41:34.531Z,15.48
2018-12-16T16:44:09.927Z,17.23
2018-12-16T16:46:45.180Z,16.85
2018-12-16T16:49:20.829Z,15.88
2018-12-16T16:51:57.326Z,16.02
2018-12-16T16:54:33.629Z,16.15
2018-12-16T16:57:09.933Z,19.40
2018-12-16T16:59:46.050Z,18.07
2018-12-16T17:02:22.083Z,19.50
2018-12-16T17:04:57.360Z,16.40
2018-12-16T17:07:32.687Z,17.60
2018-12-16T17:10:08.663Z,17.30
2018-12-16T17:12:44.043Z,16.87
2018-12-16T17:15:19.413Z,18.48
2018-12-16T17:17:55.164Z,18.25
2018-12-16T17:20:30.751Z,18.27
2018-12-16T17:23:06.194Z,17.48
2018-12-16T17:25:48.045Z,17.85
2018-12-16T17:28:19.371Z,18.37
2018-12-16T17:30:54.770Z,17.10
2018-12-16T17:33:30.592Z,18.87
2018-12-16T17:36:06.335Z,17.57
2018-12-16T17:38:41.763Z,16.77
2018-12-16T17:41:18.035Z,15.98
2018-12-16T17:43:54.701Z,17.32
2018-12-16T17:46:31.085Z,16.55
2018-12-16T17:49:07.508Z,18.05
2018-12-16T17:51:43.700Z,18.57
2018-12-16T17:54:19.965Z,17.52
2018-12-16T17:56:56.684Z,16.97
2018-12-16T17:59:33.378Z,16.12
2018-12-16T18:02:12.246Z,17.30
2018-12-16T18:04:48.224Z,17.55
2018-12-16T18:07:23.680Z,17.57
2018-12-16T18:09:59.295Z,16.70
2018-12-16T18:12:34.845Z,17.48
2018-12-16T18:15:10.553Z,17.23
2018-12-16T18:17:46.256Z,18.50
2018-12-16T18:20:21.713Z,14.75
2018-12-16T18:22:57.218Z,19.55
2018-12-16T18:25:32.730Z,17.65
2018-12-16T18:28:08.330Z,17.00
2018-12-16T18:30:43.811Z,21.60
2018-12-16T18:33:19.383Z,17.57
2018-12-16T18:35:54.805Z,17.23
2018-12-16T18:38:30.243Z,20.85
2018-12-16T18:41:05.653Z,18.85
2018-12-16T18:43:41.110Z,18.00
2018-12-16T18:46:16.691Z,19.67
2018-12-16T18:48:52.039Z,18.82
2018-12-16T18:51:27.463Z,18.37
2018-12-16T18:54:03.042Z,21.20
2018-12-16T18:56:38.450Z,19.73
2018-12-16T18:59:13.870Z,21.55
2018-12-16T19:01:49.311Z,19.15
2018-12-16T19:04:24.748Z,20.43
2018-12-16T19:07:00.405Z,20.57
2018-12-16T19:09:35.803Z,18.77
2018-12-16T19:12:11.290Z,20.02
2018-12-16T19:14:47.389Z,20.92
2018-12-16T19:17:22.798Z,17.77
2018-12-16T19:19:58.214Z,18.52
2018-12-16T19:22:33.763Z,21.82
2018-12-16T19:25:10.183Z,21.00
2018-12-16T19:27:45.774Z,18.98
2018-12-16T19:30:21.326Z,20.25
2018-12-16T19:32:57.583Z,21.17
2018-12-16T19:35:33.117Z,20.62
2018-12-16T19:38:08.462Z,20.62
2018-12-16T19:40:44.070Z,20.27
2018-12-16T19:43:19.655Z,19.00
2018-12-16T19:45:55.340Z,19.45
2018-12-16T19:48:30.922Z,20.08
2018-12-16T19:51:06.292Z,19.52
2018-12-16T19:53:41.891Z,20.08
2018-12-16T19:56:17.332Z,20.45
2018-12-16T19:58:53.136Z,20.75
2018-12-16T20:01:28.643Z,19.62
2018-12-16T20:04:09.810Z,19.80
2018-12-16T20:06:47.804Z,21.75
2018-12-16T20:09:24.490Z,22.15
2018-12-16T20:12:00.682Z,22.52
2018-12-16T20:14:36.592Z,22.10
2018-12-16T20:17:12.095Z,20.27
2018-12-16T20:19:47.545Z,21.57
2018-12-16T20:22:22.863Z,22.22
2018-12-16T20:24:58.235Z,18.12
2018-12-16T20:27:33.691Z,22.60
2018-12-16T20:30:09.818Z,19.70
2018-12-16T20:32:45.651Z,21.57
2018-12-16T20:35:21.351Z,20.77
2018-12-16T20:37:56.953Z,20.57
2018-12-16T20:40:32.792Z,20.55
2018-12-16T20:43:08.622Z,20.48
2018-12-16T20:45:44.079Z,20.95
2018-12-16T20:48:19.478Z,21.10
2018-12-16T20:50:55.055Z,19.73
2018-12-16T20:53:30.509Z,20.80
2018-12-16T20:56:05.991Z,20.30
2018-12-16T20:58:41.782Z,21.20
2018-12-16T21:01:17.186Z,20.30
2018-12-16T21:03:52.703Z,21.57
2018-12-16T21:06:28.219Z,20.85
2018-12-16T21:09:04.411Z,20.65
2018-12-16T21:11:47.298Z,22.32
2018-12-16T21:14:27.964Z,20.30
2018-12-16T21:17:08.647Z,20.62
2018-12-16T21:19:44.816Z,21.05
2018-12-16T21:22:20.471Z,19.90
2018-12-16T21:24:56.027Z,17.50
2018-12-16T21:27:31.732Z,20.75
2018-12-16T21:30:08.098Z,21.07
2018-12-16T21:32:43.830Z,19.65
2018-12-16T21:35:20.164Z,21.12
2018-12-16T21:37:55.903Z,21.27
2018-12-16T21:40:31.450Z,20.65
2018-12-16T21:43:06.971Z,23.05
2018-12-16T21:45:43.244Z,19.92
2018-12-16T21:48:19.480Z,20.23
2018-12-16T21:50:55.819Z,23.02
2018-12-16T21:53:32.287Z,22.67
2018-12-16T21:56:08.063Z,19.00
2018-12-16T21:58:43.728Z,21.65
2018-12-16T22:01:19.035Z,19.87
2018-12-16T22:03:54.433Z,20.00
2018-12-16T22:06:29.819Z,20.60
2018-12-16T22:09:07.646Z,22.30
2018-12-16T22:11:45.161Z,21.93
2018-12-16T22:14:20.652Z,20.75
2018-12-16T22:16:56.098Z,23.77
2018-12-16T22:19:31.497Z,20.88
2018-12-16T22:22:08.086Z,22.75
2018-12-16T22:24:43.454Z,22.45
2018-12-16T22:27:18.804Z,20.88
2018-12-16T22:29:54.280Z,20.62
2018-12-16T22:32:29.728Z,21.97
2018-12-16T22:35:05.512Z,21.05
2018-12-16T22:37:41.878Z,20.57
2018-12-16T22:40:17.231Z,18.45
2018-12-16T22:42:52.626Z,19.52
2018-12-16T22:45:27.996Z,20.20
2018-12-16T22:48:04.349Z,19.30
2018-12-16T22:50:39.925Z,20.60
2018-12-16T22:54:53.098Z,19.80
2018-12-16T22:57:29.120Z,19.75
2018-12-16T23:00:08.554Z,20.70
2018-12-16T23:02:46.149Z,23.12
2018-12-16T23:05:21.467Z,19.40
2018-12-16T23:07:57.009Z,20.00
2018-12-16T23:10:32.367Z,19.80
2018-12-16T23:13:08.057Z,19.52
2018-12-16T23:15:43.348Z,19.35
2018-12-16T23:18:18.806Z,19.37
2018-12-16T23:20:54.295Z,19.35
2018-12-16T23:23:29.815Z,20.40
2018-12-16T23:26:05.291Z,19.62
2018-12-16T23:28:40.876Z,22.58
2018-12-16T23:31:17.338Z,21.75
2018-12-16T23:33:52.643Z,19.42
2018-12-16T23:36:28.159Z,21.25
2018-12-16T23:39:04.215Z,22.87
2018-12-16T23:41:41.856Z,21.17
2018-12-16T23:44:17.396Z,22.42
2018-12-16T23:46:53.290Z,19.02
2018-12-16T23:49:29.511Z,20.17
2018-12-16T23:52:06.074Z,19.90
2018-12-16T23:54:41.608Z,20.37
2018-12-16T23:57:17.167Z,19.42
2018-12-16T23:59:52.919Z,18.85
